sensor_id;sensor_type;location;lat;lon;timestamp;P1;durP1;ratioP1;P2;durP2;ratioP2
23718;SDS011;43322;52.230;5.702;2023-04-25T00:01:50;10.63;;;4.00;;
23718;SDS011;43322;52.230;5.702;2023-04-25T00:04:17;16.88;;;4.38;;
23718;SDS011;43322;52.230;5.702;2023-04-25T00:06:45;15.93;;;4.45;;
23718;SDS011;43322;52.230;5.702;2023-04-25T00:09:12;10.48;;;3.90;;
23718;SDS011;43322;52.230;5.702;2023-04-25T00:11:39;17.95;;;3.80;;
23718;SDS011;43322;52.230;5.702;2023-04-25T00:14:06;14.63;;;4.45;;
23718;SDS011;43322;52.230;5.702;2023-04-25T00:16:33;6.88;;;3.53;;
23718;SDS011;43322;52.230;5.702;2023-04-25T00:19:00;15.80;;;4.18;;
23718;SDS011;43322;52.230;5.702;2023-04-25T00:21:27;10.30;;;4.22;;
23718;SDS011;43322;52.230;5.702;2023-04-25T00:23:55;11.98;;;4.13;;
23718;SDS011;43322;52.230;5.702;2023-04-25T00:26:22;11.18;;;4.32;;
23718;SDS011;43322;52.230;5.702;2023-04-25T00:28:48;12.35;;;3.95;;
23718;SDS011;43322;52.230;5.702;2023-04-25T00:31:15;12.85;;;4.03;;
23718;SDS011;43322;52.230;5.702;2023-04-25T00:33:42;18.70;;;4.28;;
23718;SDS011;43322;52.230;5.702;2023-04-25T00:36:08;14.82;;;4.20;;
23718;SDS011;43322;52.230;5.702;2023-04-25T00:38:36;11.85;;;3.78;;
23718;SDS011;43322;52.230;5.702;2023-04-25T00:41:05;12.10;;;4.00;;
23718;SDS011;43322;52.230;5.702;2023-04-25T00:43:32;11.57;;;4.50;;
23718;SDS011;43322;52.230;5.702;2023-04-25T00:45:59;11.90;;;4.63;;
23718;SDS011;43322;52.230;5.702;2023-04-25T00:48:26;16.85;;;4.30;;
23718;SDS011;43322;52.230;5.702;2023-04-25T00:50:54;10.18;;;4.00;;
23718;SDS011;43322;52.230;5.702;2023-04-25T00:53:22;19.42;;;4.82;;
23718;SDS011;43322;52.230;5.702;2023-04-25T00:55:50;12.48;;;4.20;;
23718;SDS011;43322;52.230;5.702;2023-04-25T00:58:19;12.00;;;4.68;;
23718;SDS011;43322;52.230;5.702;2023-04-25T01:00:47;12.27;;;4.60;;
23718;SDS011;43322;52.230;5.702;2023-04-25T01:03:15;18.17;;;4.18;;
23718;SDS011;43322;52.230;5.702;2023-04-25T01:05:44;13.38;;;4.85;;
23718;SDS011;43322;52.230;5.702;2023-04-25T01:08:12;9.70;;;4.15;;
23718;SDS011;43322;52.230;5.702;2023-04-25T01:10:38;23.05;;;4.57;;
23718;SDS011;43322;52.230;5.702;2023-04-25T01:13:05;17.17;;;4.22;;
23718;SDS011;43322;52.230;5.702;2023-04-25T01:15:34;12.27;;;4.38;;
23718;SDS011;43322;52.230;5.702;2023-04-25T01:18:01;8.68;;;4.60;;
23718;SDS011;43322;52.230;5.702;2023-04-25T01:20:28;12.18;;;4.30;;
23718;SDS011;43322;52.230;5.702;2023-04-25T01:22:59;16.67;;;4.07;;
23718;SDS011;43322;52.230;5.702;2023-04-25T01:25:27;7.85;;;3.80;;
23718;SDS011;43322;52.230;5.702;2023-04-25T01:27:53;14.73;;;4.45;;
23718;SDS011;43322;52.230;5.702;2023-04-25T01:30:21;15.98;;;4.28;;
23718;SDS011;43322;52.230;5.702;2023-04-25T01:32:48;18.65;;;4.53;;
23718;SDS011;43322;52.230;5.702;2023-04-25T01:35:15;9.07;;;3.90;;
23718;SDS011;43322;52.230;5.702;2023-04-25T01:37:42;7.40;;;3.70;;
23718;SDS011;43322;52.230;5.702;2023-04-25T01:40:11;13.55;;;4.18;;
23718;SDS011;43322;52.230;5.702;2023-04-25T01:42:39;9.30;;;3.92;;
23718;SDS011;43322;52.230;5.702;2023-04-25T01:45:08;12.68;;;3.88;;
23718;SDS011;43322;52.230;5.702;2023-04-25T01:47:36;17.75;;;4.30;;
23718;SDS011;43322;52.230;5.702;2023-04-25T01:50:05;10.65;;;3.78;;
23718;SDS011;43322;52.230;5.702;2023-04-25T01:52:33;6.43;;;3.47;;
23718;SDS011;43322;52.230;5.702;2023-04-25T01:54:59;10.95;;;3.90;;
23718;SDS011;43322;52.230;5.702;2023-04-25T01:57:29;19.25;;;4.20;;
23718;SDS011;43322;52.230;5.702;2023-04-25T01:59:57;13.40;;;4.13;;
23718;SDS011;43322;52.230;5.702;2023-04-25T02:02:25;15.63;;;3.83;;
23718;SDS011;43322;52.230;5.702;2023-04-25T02:04:52;10.98;;;3.83;;
23718;SDS011;43322;52.230;5.702;2023-04-25T02:07:19;10.35;;;3.70;;
23718;SDS011;43322;52.230;5.702;2023-04-25T02:09:45;20.02;;;3.92;;
23718;SDS011;43322;52.230;5.702;2023-04-25T02:12:12;14.88;;;3.67;;
23718;SDS011;43322;52.230;5.702;2023-04-25T02:14:40;14.15;;;3.70;;
23718;SDS011;43322;52.230;5.702;2023-04-25T02:17:07;11.60;;;3.70;;
23718;SDS011;43322;52.230;5.702;2023-04-25T02:19:34;11.25;;;3.50;;
23718;SDS011;43322;52.230;5.702;2023-04-25T02:22:00;10.13;;;3.67;;
23718;SDS011;43322;52.230;5.702;2023-04-25T02:24:27;11.52;;;4.05;;
23718;SDS011;43322;52.230;5.702;2023-04-25T02:26:54;12.70;;;3.38;;
23718;SDS011;43322;52.230;5.702;2023-04-25T02:29:21;14.63;;;4.15;;
23718;SDS011;43322;52.230;5.702;2023-04-25T02:31:49;9.18;;;3.58;;
23718;SDS011;43322;52.230;5.702;2023-04-25T02:34:16;16.48;;;4.25;;
23718;SDS011;43322;52.230;5.702;2023-04-25T02:36:42;10.50;;;3.70;;
23718;SDS011;43322;52.230;5.702;2023-04-25T02:39:09;12.23;;;4.03;;
23718;SDS011;43322;52.230;5.702;2023-04-25T02:41:36;11.75;;;3.88;;
23718;SDS011;43322;52.230;5.702;2023-04-25T02:44:03;11.75;;;3.90;;
23718;SDS011;43322;52.230;5.702;2023-04-25T02:46:29;11.18;;;3.92;;
23718;SDS011;43322;52.230;5.702;2023-04-25T02:48:57;16.02;;;4.40;;
23718;SDS011;43322;52.230;5.702;2023-04-25T02:51:24;9.80;;;3.88;;
23718;SDS011;43322;52.230;5.702;2023-04-25T02:53:51;6.03;;;3.63;;
23718;SDS011;43322;52.230;5.702;2023-04-25T02:56:17;10.38;;;4.10;;
23718;SDS011;43322;52.230;5.702;2023-04-25T02:58:44;13.60;;;4.00;;
23718;SDS011;43322;52.230;5.702;2023-04-25T03:01:11;9.93;;;4.18;;
23718;SDS011;43322;52.230;5.702;2023-04-25T03:03:38;16.38;;;3.90;;
23718;SDS011;43322;52.230;5.702;2023-04-25T03:06:06;11.40;;;3.35;;
23718;SDS011;43322;52.230;5.702;2023-04-25T03:08:32;10.98;;;3.78;;
23718;SDS011;43322;52.230;5.702;2023-04-25T03:10:59;11.60;;;3.83;;
23718;SDS011;43322;52.230;5.702;2023-04-25T03:13:26;7.72;;;3.80;;
23718;SDS011;43322;52.230;5.702;2023-04-25T03:15:54;12.02;;;3.63;;
23718;SDS011;43322;52.230;5.702;2023-04-25T03:18:21;8.77;;;3.95;;
23718;SDS011;43322;52.230;5.702;2023-04-25T03:20:48;8.13;;;3.80;;
23718;SDS011;43322;52.230;5.702;2023-04-25T03:23:16;8.73;;;3.90;;
23718;SDS011;43322;52.230;5.702;2023-04-25T03:25:43;9.98;;;4.18;;
23718;SDS011;43322;52.230;5.702;2023-04-25T03:28:09;11.07;;;3.50;;
23718;SDS011;43322;52.230;5.702;2023-04-25T03:30:36;13.05;;;4.28;;
23718;SDS011;43322;52.230;5.702;2023-04-25T03:33:03;16.10;;;4.28;;
23718;SDS011;43322;52.230;5.702;2023-04-25T03:35:29;10.32;;;3.72;;
23718;SDS011;43322;52.230;5.702;2023-04-25T03:37:56;10.10;;;3.80;;
23718;SDS011;43322;52.230;5.702;2023-04-25T03:40:24;12.93;;;3.83;;
23718;SDS011;43322;52.230;5.702;2023-04-25T03:42:51;9.48;;;3.80;;
23718;SDS011;43322;52.230;5.702;2023-04-25T03:45:17;6.22;;;3.80;;
23718;SDS011;43322;52.230;5.702;2023-04-25T03:47:44;16.42;;;4.20;;
23718;SDS011;43322;52.230;5.702;2023-04-25T03:50:11;13.95;;;3.83;;
23718;SDS011;43322;52.230;5.702;2023-04-25T03:52:37;8.73;;;3.50;;
23718;SDS011;43322;52.230;5.702;2023-04-25T03:55:04;12.32;;;4.38;;
23718;SDS011;43322;52.230;5.702;2023-04-25T03:57:33;19.25;;;4.80;;
23718;SDS011;43322;52.230;5.702;2023-04-25T04:00:00;12.48;;;3.80;;
23718;SDS011;43322;52.230;5.702;2023-04-25T04:02:27;8.23;;;4.03;;
23718;SDS011;43322;52.230;5.702;2023-04-25T04:04:53;8.70;;;3.85;;
23718;SDS011;43322;52.230;5.702;2023-04-25T04:07:21;8.93;;;4.05;;
23718;SDS011;43322;52.230;5.702;2023-04-25T04:09:48;10.00;;;4.43;;
23718;SDS011;43322;52.230;5.702;2023-04-25T04:12:15;10.80;;;3.78;;
23718;SDS011;43322;52.230;5.702;2023-04-25T04:14:43;9.65;;;4.18;;
23718;SDS011;43322;52.230;5.702;2023-04-25T04:17:09;9.68;;;3.80;;
23718;SDS011;43322;52.230;5.702;2023-04-25T04:19:36;10.18;;;3.83;;
23718;SDS011;43322;52.230;5.702;2023-04-25T04:22:03;8.52;;;3.85;;
23718;SDS011;43322;52.230;5.702;2023-04-25T04:24:29;7.07;;;3.60;;
23718;SDS011;43322;52.230;5.702;2023-04-25T04:26:56;14.20;;;4.28;;
23718;SDS011;43322;52.230;5.702;2023-04-25T04:29:23;14.70;;;4.68;;
23718;SDS011;43322;52.230;5.702;2023-04-25T04:31:51;11.60;;;4.07;;
23718;SDS011;43322;52.230;5.702;2023-04-25T04:34:18;6.20;;;4.03;;
23718;SDS011;43322;52.230;5.702;2023-04-25T04:36:45;9.25;;;4.57;;
23718;SDS011;43322;52.230;5.702;2023-04-25T04:39:12;7.25;;;3.92;;
23718;SDS011;43322;52.230;5.702;2023-04-25T04:41:39;11.77;;;4.32;;
23718;SDS011;43322;52.230;5.702;2023-04-25T04:44:06;14.75;;;4.70;;
23718;SDS011;43322;52.230;5.702;2023-04-25T04:46:33;9.02;;;4.38;;
23718;SDS011;43322;52.230;5.702;2023-04-25T04:49:04;17.95;;;4.03;;
23718;SDS011;43322;52.230;5.702;2023-04-25T04:51:30;9.85;;;4.63;;
23718;SDS011;43322;52.230;5.702;2023-04-25T04:53:58;7.28;;;4.13;;
23718;SDS011;43322;52.230;5.702;2023-04-25T04:56:27;13.07;;;5.03;;
23718;SDS011;43322;52.230;5.702;2023-04-25T04:58:54;10.55;;;4.47;;
23718;SDS011;43322;52.230;5.702;2023-04-25T05:01:21;11.65;;;4.80;;
23718;SDS011;43322;52.230;5.702;2023-04-25T05:03:48;10.65;;;4.65;;
23718;SDS011;43322;52.230;5.702;2023-04-25T05:06:16;10.27;;;4.10;;
23718;SDS011;43322;52.230;5.702;2023-04-25T05:08:43;10.07;;;4.95;;
23718;SDS011;43322;52.230;5.702;2023-04-25T05:11:10;10.25;;;4.47;;
23718;SDS011;43322;52.230;5.702;2023-04-25T05:13:37;10.45;;;4.18;;
23718;SDS011;43322;52.230;5.702;2023-04-25T05:16:03;8.07;;;4.07;;
23718;SDS011;43322;52.230;5.702;2023-04-25T05:18:30;10.35;;;4.20;;
23718;SDS011;43322;52.230;5.702;2023-04-25T05:20:57;7.47;;;4.10;;
23718;SDS011;43322;52.230;5.702;2023-04-25T05:23:25;13.40;;;4.45;;
23718;SDS011;43322;52.230;5.702;2023-04-25T05:25:52;11.02;;;4.43;;
23718;SDS011;43322;52.230;5.702;2023-04-25T05:28:19;11.15;;;3.95;;
23718;SDS011;43322;52.230;5.702;2023-04-25T05:30:46;9.02;;;4.85;;
23718;SDS011;43322;52.230;5.702;2023-04-25T05:33:12;12.27;;;4.43;;
23718;SDS011;43322;52.230;5.702;2023-04-25T05:35:39;12.60;;;4.43;;
23718;SDS011;43322;52.230;5.702;2023-04-25T05:38:06;8.45;;;4.10;;
23718;SDS011;43322;52.230;5.702;2023-04-25T05:40:34;8.65;;;3.72;;
23718;SDS011;43322;52.230;5.702;2023-04-25T05:43:01;18.75;;;4.90;;
23718;SDS011;43322;52.230;5.702;2023-04-25T05:45:27;11.63;;;4.65;;
23718;SDS011;43322;52.230;5.702;2023-04-25T05:47:54;8.50;;;4.03;;
23718;SDS011;43322;52.230;5.702;2023-04-25T05:50:21;7.82;;;3.78;;
23718;SDS011;43322;52.230;5.702;2023-04-25T05:52:48;6.20;;;4.22;;
23718;SDS011;43322;52.230;5.702;2023-04-25T05:55:14;7.25;;;4.13;;
23718;SDS011;43322;52.230;5.702;2023-04-25T05:57:43;6.80;;;3.85;;
23718;SDS011;43322;52.230;5.702;2023-04-25T06:00:11;7.03;;;4.22;;
23718;SDS011;43322;52.230;5.702;2023-04-25T06:02:40;7.82;;;4.03;;
23718;SDS011;43322;52.230;5.702;2023-04-25T06:05:07;11.60;;;4.50;;
23718;SDS011;43322;52.230;5.702;2023-04-25T06:07:34;6.72;;;3.92;;
23718;SDS011;43322;52.230;5.702;2023-04-25T06:10:01;8.55;;;3.97;;
23718;SDS011;43322;52.230;5.702;2023-04-25T06:12:28;6.75;;;3.80;;
23718;SDS011;43322;52.230;5.702;2023-04-25T06:14:57;10.80;;;3.95;;
23718;SDS011;43322;52.230;5.702;2023-04-25T06:17:23;12.23;;;4.45;;
23718;SDS011;43322;52.230;5.702;2023-04-25T06:19:50;6.22;;;3.50;;
23718;SDS011;43322;52.230;5.702;2023-04-25T06:22:17;5.25;;;3.08;;
23718;SDS011;43322;52.230;5.702;2023-04-25T06:24:44;12.57;;;3.33;;
23718;SDS011;43322;52.230;5.702;2023-04-25T06:27:11;12.75;;;3.72;;
23718;SDS011;43322;52.230;5.702;2023-04-25T06:29:38;10.68;;;3.40;;
23718;SDS011;43322;52.230;5.702;2023-04-25T06:32:06;11.07;;;3.83;;
23718;SDS011;43322;52.230;5.702;2023-04-25T06:34:32;7.78;;;3.05;;
23718;SDS011;43322;52.230;5.702;2023-04-25T06:36:59;9.65;;;2.53;;
23718;SDS011;43322;52.230;5.702;2023-04-25T06:39:26;10.77;;;3.03;;
23718;SDS011;43322;52.230;5.702;2023-04-25T06:41:53;13.88;;;3.08;;
23718;SDS011;43322;52.230;5.702;2023-04-25T06:44:19;5.55;;;2.20;;
23718;SDS011;43322;52.230;5.702;2023-04-25T06:46:48;8.48;;;2.40;;
23718;SDS011;43322;52.230;5.702;2023-04-25T06:49:16;10.98;;;2.40;;
23718;SDS011;43322;52.230;5.702;2023-04-25T06:51:42;11.82;;;2.50;;
23718;SDS011;43322;52.230;5.702;2023-04-25T06:54:09;8.38;;;2.70;;
23718;SDS011;43322;52.230;5.702;2023-04-25T06:56:36;13.93;;;2.30;;
23718;SDS011;43322;52.230;5.702;2023-04-25T06:59:02;7.40;;;2.10;;
23718;SDS011;43322;52.230;5.702;2023-04-25T07:01:29;7.70;;;1.58;;
23718;SDS011;43322;52.230;5.702;2023-04-25T07:03:56;8.68;;;2.33;;
23718;SDS011;43322;52.230;5.702;2023-04-25T07:06:24;10.77;;;2.28;;
23718;SDS011;43322;52.230;5.702;2023-04-25T07:08:52;6.88;;;1.80;;
23718;SDS011;43322;52.230;5.702;2023-04-25T07:11:20;6.32;;;1.50;;
23718;SDS011;43322;52.230;5.702;2023-04-25T07:13:47;8.85;;;2.17;;
23718;SDS011;43322;52.230;5.702;2023-04-25T07:16:14;9.75;;;2.08;;
23718;SDS011;43322;52.230;5.702;2023-04-25T07:18:40;3.55;;;1.50;;
23718;SDS011;43322;52.230;5.702;2023-04-25T07:21:07;6.57;;;1.85;;
23718;SDS011;43322;52.230;5.702;2023-04-25T07:23:35;4.60;;;1.65;;
23718;SDS011;43322;52.230;5.702;2023-04-25T07:26:02;5.57;;;1.60;;
23718;SDS011;43322;52.230;5.702;2023-04-25T07:28:29;8.27;;;1.85;;
23718;SDS011;43322;52.230;5.702;2023-04-25T07:30:55;5.60;;;1.38;;
23718;SDS011;43322;52.230;5.702;2023-04-25T07:33:23;6.55;;;1.27;;
23718;SDS011;43322;52.230;5.702;2023-04-25T07:35:50;4.32;;;1.42;;
23718;SDS011;43322;52.230;5.702;2023-04-25T07:38:16;6.40;;;2.00;;
23718;SDS011;43322;52.230;5.702;2023-04-25T07:40:44;7.32;;;1.67;;
23718;SDS011;43322;52.230;5.702;2023-04-25T07:43:11;3.47;;;1.92;;
23718;SDS011;43322;52.230;5.702;2023-04-25T07:45:41;8.80;;;2.00;;
23718;SDS011;43322;52.230;5.702;2023-04-25T07:48:08;6.90;;;2.58;;
23718;SDS011;43322;52.230;5.702;2023-04-25T07:50:35;7.78;;;2.10;;
23718;SDS011;43322;52.230;5.702;2023-04-25T07:53:01;4.25;;;1.60;;
23718;SDS011;43322;52.230;5.702;2023-04-25T07:55:28;9.15;;;1.67;;
23718;SDS011;43322;52.230;5.702;2023-04-25T07:57:56;8.82;;;1.85;;
23718;SDS011;43322;52.230;5.702;2023-04-25T08:00:23;4.03;;;1.30;;
23718;SDS011;43322;52.230;5.702;2023-04-25T08:02:50;4.53;;;1.60;;
23718;SDS011;43322;52.230;5.702;2023-04-25T08:05:17;8.52;;;1.83;;
23718;SDS011;43322;52.230;5.702;2023-04-25T08:07:43;2.83;;;1.90;;
23718;SDS011;43322;52.230;5.702;2023-04-25T08:10:10;3.65;;;1.30;;
23718;SDS011;43322;52.230;5.702;2023-04-25T08:12:37;2.53;;;1.45;;
23718;SDS011;43322;52.230;5.702;2023-04-25T08:15:05;9.32;;;1.88;;
23718;SDS011;43322;52.230;5.702;2023-04-25T08:17:33;11.90;;;2.05;;
23718;SDS011;43322;52.230;5.702;2023-04-25T08:19:59;5.07;;;1.30;;
23718;SDS011;43322;52.230;5.702;2023-04-25T08:22:28;5.95;;;1.92;;
23718;SDS011;43322;52.230;5.702;2023-04-25T08:24:55;6.75;;;1.65;;
23718;SDS011;43322;52.230;5.702;2023-04-25T08:27:22;5.28;;;1.52;;
23718;SDS011;43322;52.230;5.702;2023-04-25T08:29:49;3.38;;;1.25;;
23718;SDS011;43322;52.230;5.702;2023-04-25T08:32:18;3.88;;;1.15;;
23718;SDS011;43322;52.230;5.702;2023-04-25T08:34:46;11.18;;;2.25;;
23718;SDS011;43322;52.230;5.702;2023-04-25T08:37:13;2.60;;;1.40;;
23718;SDS011;43322;52.230;5.702;2023-04-25T08:39:40;2.10;;;1.02;;
23718;SDS011;43322;52.230;5.702;2023-04-25T08:42:07;4.10;;;1.17;;
23718;SDS011;43322;52.230;5.702;2023-04-25T08:44:33;3.78;;;0.80;;
23718;SDS011;43322;52.230;5.702;2023-04-25T08:47:01;3.88;;;1.08;;
23718;SDS011;43322;52.230;5.702;2023-04-25T08:49:30;4.03;;;1.10;;
23718;SDS011;43322;52.230;5.702;2023-04-25T08:51:59;1.90;;;1.02;;
23718;SDS011;43322;52.230;5.702;2023-04-25T08:54:27;3.60;;;1.52;;
23718;SDS011;43322;52.230;5.702;2023-04-25T08:56:55;3.58;;;1.23;;
23718;SDS011;43322;52.230;5.702;2023-04-25T08:59:23;7.38;;;1.42;;
23718;SDS011;43322;52.230;5.702;2023-04-25T09:01:50;5.00;;;1.52;;
23718;SDS011;43322;52.230;5.702;2023-04-25T09:04:17;6.65;;;1.50;;
23718;SDS011;43322;52.230;5.702;2023-04-25T09:06:45;4.47;;;1.38;;
23718;SDS011;43322;52.230;5.702;2023-04-25T09:09:12;3.50;;;1.50;;
23718;SDS011;43322;52.230;5.702;2023-04-25T09:11:39;7.93;;;1.83;;
23718;SDS011;43322;52.230;5.702;2023-04-25T09:14:12;2.78;;;1.63;;
23718;SDS011;43322;52.230;5.702;2023-04-25T09:16:59;3.22;;;1.45;;
23718;SDS011;43322;52.230;5.702;2023-04-25T09:19:28;4.68;;;1.70;;
23718;SDS011;43322;52.230;5.702;2023-04-25T09:21:57;4.25;;;1.15;;
23718;SDS011;43322;52.230;5.702;2023-04-25T09:24:34;7.30;;;1.55;;
23718;SDS011;43322;52.230;5.702;2023-04-25T09:27:05;3.63;;;1.20;;
23718;SDS011;43322;52.230;5.702;2023-04-25T09:29:33;6.45;;;1.30;;
23718;SDS011;43322;52.230;5.702;2023-04-25T09:32:12;3.90;;;1.30;;
23718;SDS011;43322;52.230;5.702;2023-04-25T09:34:44;3.30;;;1.23;;
23718;SDS011;43322;52.230;5.702;2023-04-25T09:37:17;2.10;;;1.00;;
23718;SDS011;43322;52.230;5.702;2023-04-25T09:39:45;3.13;;;1.17;;
23718;SDS011;43322;52.230;5.702;2023-04-25T09:42:13;2.03;;;1.10;;
23718;SDS011;43322;52.230;5.702;2023-04-25T09:44:43;4.60;;;1.23;;
23718;SDS011;43322;52.230;5.702;2023-04-25T09:47:11;3.45;;;1.35;;
23718;SDS011;43322;52.230;5.702;2023-04-25T09:49:39;6.07;;;1.75;;
23718;SDS011;43322;52.230;5.702;2023-04-25T09:52:06;10.15;;;1.45;;
23718;SDS011;43322;52.230;5.702;2023-04-25T09:54:34;4.40;;;1.20;;
23718;SDS011;43322;52.230;5.702;2023-04-25T09:57:02;7.22;;;1.70;;
23718;SDS011;43322;52.230;5.702;2023-04-25T09:59:37;2.05;;;1.27;;
23718;SDS011;43322;52.230;5.702;2023-04-25T10:02:06;4.32;;;1.55;;
23718;SDS011;43322;52.230;5.702;2023-04-25T10:04:35;4.45;;;1.35;;
23718;SDS011;43322;52.230;5.702;2023-04-25T10:07:02;5.40;;;1.60;;
23718;SDS011;43322;52.230;5.702;2023-04-25T10:09:31;5.95;;;1.85;;
23718;SDS011;43322;52.230;5.702;2023-04-25T10:12:00;4.60;;;1.55;;
23718;SDS011;43322;52.230;5.702;2023-04-25T10:14:29;1.85;;;1.20;;
23718;SDS011;43322;52.230;5.702;2023-04-25T10:16:55;5.18;;;1.50;;
23718;SDS011;43322;52.230;5.702;2023-04-25T10:19:23;4.82;;;2.35;;
23718;SDS011;43322;52.230;5.702;2023-04-25T10:21:51;6.15;;;1.50;;
23718;SDS011;43322;52.230;5.702;2023-04-25T10:24:21;6.13;;;1.52;;
23718;SDS011;43322;52.230;5.702;2023-04-25T10:26:48;2.72;;;1.40;;
23718;SDS011;43322;52.230;5.702;2023-04-25T10:29:22;3.78;;;1.23;;
23718;SDS011;43322;52.230;5.702;2023-04-25T10:31:50;1.67;;;0.95;;
23718;SDS011;43322;52.230;5.702;2023-04-25T10:34:16;2.72;;;1.08;;
23718;SDS011;43322;52.230;5.702;2023-04-25T10:36:48;2.88;;;1.05;;
23718;SDS011;43322;52.230;5.702;2023-04-25T10:39:21;4.07;;;1.20;;
23718;SDS011;43322;52.230;5.702;2023-04-25T10:41:52;3.72;;;1.10;;
23718;SDS011;43322;52.230;5.702;2023-04-25T10:44:22;5.20;;;1.13;;
23718;SDS011;43322;52.230;5.702;2023-04-25T10:46:52;6.50;;;1.35;;
23718;SDS011;43322;52.230;5.702;2023-04-25T10:52:12;9.10;;;1.30;;
23718;SDS011;43322;52.230;5.702;2023-04-25T10:54:40;2.90;;;0.93;;
23718;SDS011;43322;52.230;5.702;2023-04-25T10:57:14;3.03;;;1.10;;
23718;SDS011;43322;52.230;5.702;2023-04-25T10:59:54;1.70;;;1.00;;
23718;SDS011;43322;52.230;5.702;2023-04-25T11:02:25;3.65;;;1.15;;
23718;SDS011;43322;52.230;5.702;2023-04-25T11:04:53;1.85;;;1.05;;
23718;SDS011;43322;52.230;5.702;2023-04-25T11:07:23;2.85;;;1.20;;
23718;SDS011;43322;52.230;5.702;2023-04-25T11:09:54;2.10;;;0.70;;
23718;SDS011;43322;52.230;5.702;2023-04-25T11:12:21;4.25;;;1.30;;
23718;SDS011;43322;52.230;5.702;2023-04-25T11:14:58;5.18;;;1.45;;
23718;SDS011;43322;52.230;5.702;2023-04-25T11:17:26;5.90;;;1.30;;
23718;SDS011;43322;52.230;5.702;2023-04-25T11:19:53;2.95;;;1.40;;
23718;SDS011;43322;52.230;5.702;2023-04-25T11:22:20;3.97;;;1.42;;
23718;SDS011;43322;52.230;5.702;2023-04-25T11:24:48;4.50;;;1.20;;
23718;SDS011;43322;52.230;5.702;2023-04-25T11:27:15;3.13;;;1.38;;
23718;SDS011;43322;52.230;5.702;2023-04-25T11:29:42;5.55;;;1.40;;
23718;SDS011;43322;52.230;5.702;2023-04-25T11:32:10;2.85;;;1.20;;
23718;SDS011;43322;52.230;5.702;2023-04-25T11:34:36;2.67;;;1.00;;
23718;SDS011;43322;52.230;5.702;2023-04-25T11:37:03;3.97;;;1.10;;
23718;SDS011;43322;52.230;5.702;2023-04-25T11:39:31;6.97;;;1.40;;
23718;SDS011;43322;52.230;5.702;2023-04-25T11:41:58;2.45;;;1.38;;
23718;SDS011;43322;52.230;5.702;2023-04-25T11:44:26;2.50;;;1.13;;
23718;SDS011;43322;52.230;5.702;2023-04-25T11:46:52;4.65;;;1.10;;
23718;SDS011;43322;52.230;5.702;2023-04-25T11:49:20;2.53;;;1.17;;
23718;SDS011;43322;52.230;5.702;2023-04-25T11:51:49;7.13;;;1.20;;
23718;SDS011;43322;52.230;5.702;2023-04-25T11:54:16;2.08;;;1.05;;
23718;SDS011;43322;52.230;5.702;2023-04-25T11:56:43;2.03;;;0.98;;
23718;SDS011;43322;52.230;5.702;2023-04-25T11:59:10;1.23;;;1.02;;
23718;SDS011;43322;52.230;5.702;2023-04-25T12:01:39;6.00;;;1.40;;
23718;SDS011;43322;52.230;5.702;2023-04-25T12:04:09;7.35;;;1.23;;
23718;SDS011;43322;52.230;5.702;2023-04-25T12:06:39;1.73;;;0.93;;
23718;SDS011;43322;52.230;5.702;2023-04-25T12:09:07;0.85;;;0.80;;
23718;SDS011;43322;52.230;5.702;2023-04-25T12:11:40;2.47;;;1.05;;
23718;SDS011;43322;52.230;5.702;2023-04-25T12:14:07;3.22;;;0.98;;
23718;SDS011;43322;52.230;5.702;2023-04-25T12:16:41;1.73;;;0.90;;
23718;SDS011;43322;52.230;5.702;2023-04-25T12:19:08;4.05;;;1.15;;
23718;SDS011;43322;52.230;5.702;2023-04-25T12:21:35;2.13;;;1.00;;
23718;SDS011;43322;52.230;5.702;2023-04-25T12:24:13;1.67;;;0.80;;
23718;SDS011;43322;52.230;5.702;2023-04-25T12:26:48;3.03;;;0.88;;
23718;SDS011;43322;52.230;5.702;2023-04-25T12:29:20;2.45;;;0.98;;
23718;SDS011;43322;52.230;5.702;2023-04-25T12:31:47;3.08;;;0.90;;
23718;SDS011;43322;52.230;5.702;2023-04-25T12:34:16;2.65;;;1.05;;
23718;SDS011;43322;52.230;5.702;2023-04-25T12:36:42;4.05;;;1.05;;
23718;SDS011;43322;52.230;5.702;2023-04-25T12:39:15;3.40;;;1.23;;
23718;SDS011;43322;52.230;5.702;2023-04-25T12:41:42;2.42;;;1.08;;
23718;SDS011;43322;52.230;5.702;2023-04-25T12:44:09;3.80;;;1.20;;
23718;SDS011;43322;52.230;5.702;2023-04-25T12:46:36;1.52;;;1.30;;
23718;SDS011;43322;52.230;5.702;2023-04-25T12:49:03;3.00;;;0.95;;
23718;SDS011;43322;52.230;5.702;2023-04-25T12:51:31;1.13;;;0.70;;
23718;SDS011;43322;52.230;5.702;2023-04-25T12:53:57;3.05;;;0.93;;
23718;SDS011;43322;52.230;5.702;2023-04-25T12:56:26;3.80;;;1.10;;
23718;SDS011;43322;52.230;5.702;2023-04-25T12:58:52;3.30;;;1.10;;
23718;SDS011;43322;52.230;5.702;2023-04-25T13:01:19;1.80;;;0.90;;
23718;SDS011;43322;52.230;5.702;2023-04-25T13:03:46;4.28;;;1.27;;
23718;SDS011;43322;52.230;5.702;2023-04-25T13:06:13;2.90;;;1.27;;
23718;SDS011;43322;52.230;5.702;2023-04-25T13:08:40;3.00;;;1.08;;
23718;SDS011;43322;52.230;5.702;2023-04-25T13:11:07;2.25;;;0.80;;
23718;SDS011;43322;52.230;5.702;2023-04-25T13:13:35;2.47;;;1.02;;
23718;SDS011;43322;52.230;5.702;2023-04-25T13:16:02;4.80;;;1.48;;
23718;SDS011;43322;52.230;5.702;2023-04-25T13:18:30;4.30;;;1.30;;
23718;SDS011;43322;52.230;5.702;2023-04-25T13:20:57;1.55;;;1.08;;
23718;SDS011;43322;52.230;5.702;2023-04-25T13:23:26;3.13;;;1.00;;
23718;SDS011;43322;52.230;5.702;2023-04-25T13:25:53;3.72;;;1.38;;
23718;SDS011;43322;52.230;5.702;2023-04-25T13:28:22;1.17;;;0.75;;
23718;SDS011;43322;52.230;5.702;2023-04-25T13:30:50;1.58;;;1.13;;
23718;SDS011;43322;52.230;5.702;2023-04-25T13:33:17;2.13;;;1.40;;
23718;SDS011;43322;52.230;5.702;2023-04-25T13:35:45;2.10;;;1.17;;
23718;SDS011;43322;52.230;5.702;2023-04-25T13:38:18;4.90;;;1.42;;
23718;SDS011;43322;52.230;5.702;2023-04-25T13:40:45;3.45;;;1.40;;
23718;SDS011;43322;52.230;5.702;2023-04-25T13:43:12;4.18;;;1.55;;
23718;SDS011;43322;52.230;5.702;2023-04-25T13:45:39;2.95;;;1.10;;
23718;SDS011;43322;52.230;5.702;2023-04-25T13:48:07;5.55;;;1.40;;
23718;SDS011;43322;52.230;5.702;2023-04-25T13:50:34;2.28;;;1.25;;
23718;SDS011;43322;52.230;5.702;2023-04-25T13:53:00;2.75;;;1.27;;
23718;SDS011;43322;52.230;5.702;2023-04-25T13:55:27;4.10;;;1.48;;
23718;SDS011;43322;52.230;5.702;2023-04-25T13:57:55;4.35;;;1.10;;
23718;SDS011;43322;52.230;5.702;2023-04-25T14:00:21;1.98;;;1.00;;
23718;SDS011;43322;52.230;5.702;2023-04-25T14:02:48;4.28;;;1.20;;
23718;SDS011;43322;52.230;5.702;2023-04-25T14:05:17;5.03;;;1.25;;
23718;SDS011;43322;52.230;5.702;2023-04-25T14:07:44;2.30;;;1.10;;
23718;SDS011;43322;52.230;5.702;2023-04-25T14:10:11;2.65;;;1.00;;
23718;SDS011;43322;52.230;5.702;2023-04-25T14:12:37;3.47;;;1.00;;
23718;SDS011;43322;52.230;5.702;2023-04-25T14:15:05;2.75;;;1.10;;
23718;SDS011;43322;52.230;5.702;2023-04-25T14:17:32;3.97;;;1.73;;
23718;SDS011;43322;52.230;5.702;2023-04-25T14:19:59;3.58;;;1.38;;
23718;SDS011;43322;52.230;5.702;2023-04-25T14:22:27;4.82;;;1.42;;
23718;SDS011;43322;52.230;5.702;2023-04-25T14:24:53;3.47;;;1.33;;
23718;SDS011;43322;52.230;5.702;2023-04-25T14:27:20;3.63;;;1.42;;
23718;SDS011;43322;52.230;5.702;2023-04-25T14:29:47;1.35;;;1.02;;
23718;SDS011;43322;52.230;5.702;2023-04-25T14:32:13;8.68;;;1.20;;
23718;SDS011;43322;52.230;5.702;2023-04-25T14:34:40;4.45;;;1.23;;
23718;SDS011;43322;52.230;5.702;2023-04-25T14:37:07;3.08;;;1.30;;
23718;SDS011;43322;52.230;5.702;2023-04-25T14:39:35;2.65;;;1.42;;
23718;SDS011;43322;52.230;5.702;2023-04-25T14:42:02;3.10;;;1.73;;
23718;SDS011;43322;52.230;5.702;2023-04-25T14:44:29;3.55;;;1.25;;
23718;SDS011;43322;52.230;5.702;2023-04-25T14:46:56;3.47;;;1.30;;
23718;SDS011;43322;52.230;5.702;2023-04-25T14:49:22;3.97;;;1.20;;